createdAt,value
2022-10-11T00:01:11.527Z,3.33
2022-10-11T00:04:00.479Z,3.07
2022-10-11T00:06:48.060Z,2.90
2022-10-11T00:09:35.727Z,2.70
2022-10-11T00:12:23.230Z,2.30
2022-10-11T00:15:15.266Z,2.13
2022-10-11T00:18:05.391Z,2.47
2022-10-11T00:21:03.223Z,2.40
2022-10-11T00:23:52.035Z,2.70
2022-10-11T00:26:43.233Z,3.00
2022-10-11T00:29:33.460Z,2.93
2022-10-11T00:32:21.114Z,2.73
2022-10-11T00:35:10.341Z,2.50
2022-10-11T00:37:59.254Z,2.80
2022-10-11T00:40:47.320Z,3.07
2022-10-11T00:43:35.095Z,3.10
2022-10-11T00:46:31.925Z,3.10
2022-10-11T00:49:28.171Z,2.77
2022-10-11T00:52:29.001Z,2.07
2022-10-11T00:55:22.096Z,1.90
2022-10-11T00:58:10.646Z,3.77
2022-10-11T01:00:58.255Z,4.07
2022-10-11T01:03:46.188Z,3.93
2022-10-11T01:06:35.862Z,4.00
2022-10-11T01:09:24.192Z,3.93
2022-10-11T01:12:20.007Z,3.50
2022-10-11T01:15:17.882Z,3.30
2022-10-11T01:18:11.797Z,3.03
2022-10-11T01:21:08.268Z,3.70
2022-10-11T01:24:35.963Z,3.10
2022-10-11T01:27:47.696Z,3.13
2022-10-11T01:30:38.297Z,3.10
2022-10-11T01:33:32.752Z,3.10
2022-10-11T01:36:29.357Z,3.30
2022-10-11T01:39:25.587Z,3.40
2022-10-11T01:42:14.906Z,4.10
2022-10-11T01:45:02.545Z,3.43
2022-10-11T01:48:04.725Z,3.27
2022-10-11T01:50:54.354Z,3.30
2022-10-11T01:54:14.514Z,2.70
2022-10-11T01:57:35.076Z,3.80
2022-10-11T02:00:25.009Z,3.57
2022-10-11T02:03:24.456Z,2.93
2022-10-11T02:06:18.744Z,3.67
2022-10-11T02:09:16.183Z,4.00
2022-10-11T02:12:08.940Z,2.60
2022-10-11T02:14:58.872Z,3.50
2022-10-11T02:17:50.269Z,3.37
2022-10-11T02:20:41.771Z,3.63
2022-10-11T02:23:33.971Z,4.23
2022-10-11T02:26:22.681Z,4.50
2022-10-11T02:29:13.644Z,4.40
2022-10-11T02:32:02.732Z,5.17
2022-10-11T02:34:55.493Z,5.20
2022-10-11T02:37:53.377Z,5.23
2022-10-11T02:40:47.803Z,5.43
2022-10-11T02:43:41.865Z,5.20
2022-10-11T02:46:31.261Z,4.60
2022-10-11T02:49:19.923Z,4.70
2022-10-11T02:52:08.127Z,4.30
2022-10-11T02:54:57.450Z,4.83
2022-10-11T02:57:45.059Z,4.47
2022-10-11T03:00:33.009Z,4.30
2022-10-11T03:03:20.556Z,3.33
2022-10-11T03:06:09.405Z,3.50
2022-10-11T03:08:56.757Z,4.10
2022-10-11T03:11:45.592Z,3.63
2022-10-11T03:14:33.227Z,3.83
2022-10-11T03:17:35.588Z,3.70
2022-10-11T03:20:24.475Z,3.07
2022-10-11T03:23:12.885Z,2.83
2022-10-11T03:26:01.284Z,2.57
2022-10-11T03:28:54.388Z,3.20
2022-10-11T03:31:42.064Z,3.30
2022-10-11T03:34:29.711Z,3.50
2022-10-11T03:37:17.252Z,3.57
2022-10-11T03:40:06.245Z,2.73
2022-10-11T03:42:55.067Z,3.00
2022-10-11T03:45:45.630Z,2.97
2022-10-11T03:48:33.489Z,2.50
2022-10-11T03:51:21.942Z,2.37
2022-10-11T03:54:09.550Z,2.13
2022-10-11T03:57:27.729Z,1.80
2022-10-11T04:38:01.674Z,1.30
2022-10-11T04:41:24.937Z,1.00
2022-10-11T04:45:18.190Z,1.03
2022-10-11T04:49:05.147Z,1.30
2022-10-11T04:52:21.106Z,1.10
2022-10-11T04:56:15.830Z,0.93
2022-10-11T04:59:53.630Z,1.30
2022-10-11T05:02:49.331Z,1.37
2022-10-11T05:05:53.449Z,1.53
2022-10-11T05:12:58.093Z,1.20
2022-10-11T05:16:13.623Z,0.87
2022-10-11T05:19:09.865Z,1.17
2022-10-11T05:22:42.852Z,1.67
2022-10-11T05:26:12.737Z,1.33
2022-10-11T05:29:28.512Z,1.13
2022-10-11T05:33:13.349Z,1.10
2022-10-11T05:36:33.389Z,1.20
2022-10-11T05:39:32.995Z,1.40
2022-10-11T05:42:45.148Z,1.30
2022-10-11T05:45:48.672Z,1.60
2022-10-11T05:49:46.551Z,1.30
2022-10-11T05:53:35.278Z,1.20
2022-10-11T05:57:04.779Z,1.80
2022-10-11T06:00:13.628Z,1.30
2022-10-11T06:03:06.467Z,1.77
2022-10-11T06:06:08.462Z,2.07
2022-10-11T06:09:43.102Z,1.53
2022-10-11T06:16:57.221Z,1.40
2022-10-11T06:20:50.382Z,1.30
2022-10-11T06:28:09.878Z,1.30
2022-10-11T06:30:53.225Z,1.03
2022-10-11T06:33:58.761Z,1.43
2022-10-11T06:39:34.801Z,1.23
2022-10-11T06:42:41.305Z,1.23
2022-10-11T06:45:37.101Z,1.50
2022-10-11T06:51:45.532Z,1.27
2022-10-11T06:54:20.724Z,1.70
2022-10-11T06:57:54.773Z,1.80
2022-10-11T07:01:36.673Z,1.13
2022-10-11T07:04:17.835Z,1.30
2022-10-11T07:10:27.416Z,1.13
2022-10-11T07:16:36.163Z,1.40
2022-10-11T07:19:16.678Z,1.33
2022-10-11T07:21:50.835Z,1.50
2022-10-11T07:24:51.697Z,1.50
2022-10-11T07:27:26.846Z,1.80
2022-10-11T07:30:09.966Z,1.97
2022-10-11T07:34:06.037Z,2.23
2022-10-11T07:43:56.000Z,1.93
2022-10-11T07:46:26.018Z,2.60
2022-10-11T07:48:59.603Z,2.30
2022-10-11T07:51:34.659Z,2.37
2022-10-11T07:54:08.752Z,2.20
2022-10-11T07:56:40.281Z,2.67
2022-10-11T08:02:50.847Z,2.10
2022-10-11T08:05:23.916Z,2.20
2022-10-11T08:07:57.132Z,1.90
2022-10-11T08:10:27.023Z,1.83
2022-10-11T08:13:26.137Z,1.93
2022-10-11T08:16:07.549Z,1.90
2022-10-11T08:18:41.642Z,1.50
2022-10-11T08:21:20.399Z,1.53
2022-10-11T08:24:00.597Z,1.80
2022-10-11T08:26:39.359Z,1.90
2022-10-11T08:29:13.501Z,2.80
2022-10-11T08:31:57.801Z,3.40
2022-10-11T08:35:48.771Z,2.40
2022-10-11T08:38:22.576Z,4.73
2022-10-11T08:41:02.786Z,3.83
2022-10-11T08:44:58.178Z,2.97
2022-10-11T08:47:44.377Z,2.60
2022-10-11T09:08:42.024Z,2.20
2022-10-11T09:11:44.380Z,3.53
2022-10-11T09:18:56.979Z,2.47
2022-10-11T09:21:56.639Z,1.90
2022-10-11T09:24:38.250Z,1.90
2022-10-11T09:27:25.896Z,1.50
2022-10-11T09:30:14.554Z,2.70
2022-10-11T09:32:47.091Z,2.03
2022-10-11T09:35:19.493Z,1.60
2022-10-11T09:38:00.592Z,1.30
2022-10-11T09:40:44.723Z,2.13
2022-10-11T09:43:14.343Z,1.90
2022-10-11T09:45:49.294Z,1.67
2022-10-11T09:48:24.476Z,1.90
2022-10-11T09:50:56.209Z,1.80
2022-10-11T09:53:57.148Z,1.57
2022-10-11T09:56:28.945Z,1.57
2022-10-11T09:59:27.453Z,1.70
2022-10-11T10:02:24.828Z,1.70
2022-10-11T10:05:16.144Z,1.77
2022-10-11T10:08:05.495Z,1.47
2022-10-11T10:10:42.368Z,1.17
2022-10-11T10:13:22.876Z,1.53
2022-10-11T10:15:54.049Z,1.30
2022-10-11T10:18:28.638Z,1.37
2022-10-11T10:21:00.598Z,1.70
2022-10-11T10:23:32.508Z,1.67
2022-10-11T10:26:16.942Z,1.90
2022-10-11T10:29:20.098Z,1.47
2022-10-11T10:34:59.483Z,1.43
2022-10-11T10:37:33.989Z,1.73
2022-10-11T10:40:08.261Z,1.40
2022-10-11T10:42:39.286Z,1.57
2022-10-11T10:45:20.858Z,1.60
2022-10-11T10:48:17.308Z,1.70
2022-10-11T10:50:56.343Z,1.57
2022-10-11T10:53:34.195Z,1.87
2022-10-11T10:56:11.841Z,1.77
2022-10-11T10:59:16.128Z,1.53
2022-10-11T11:01:57.136Z,1.63
2022-10-11T11:04:32.210Z,1.63
2022-10-11T11:07:11.032Z,2.20
2022-10-11T11:09:51.277Z,1.70
2022-10-11T11:12:35.811Z,1.60
2022-10-11T11:15:13.171Z,1.50
2022-10-11T11:18:00.167Z,1.70
2022-10-11T11:20:48.297Z,1.80
2022-10-11T11:23:27.214Z,1.67
2022-10-11T11:26:07.971Z,2.37
2022-10-11T11:28:57.164Z,1.57
2022-10-11T11:31:55.456Z,1.37
2022-10-11T11:34:27.986Z,1.73
2022-10-11T11:37:01.769Z,1.93
2022-10-11T11:39:36.203Z,2.13
2022-10-11T11:42:10.134Z,1.80
2022-10-11T11:44:42.766Z,1.90
2022-10-11T11:47:21.509Z,1.65
2022-10-11T11:49:57.167Z,2.00
2022-10-11T11:52:32.122Z,1.60
2022-10-11T11:55:10.639Z,1.67
2022-10-11T11:57:55.325Z,1.43
2022-10-11T12:00:28.198Z,1.42
2022-10-11T12:03:01.954Z,1.42
2022-10-11T12:05:36.011Z,1.80
2022-10-11T12:08:08.396Z,1.20
2022-10-11T12:10:39.932Z,2.17
2022-10-11T12:13:20.885Z,1.65
2022-10-11T12:16:10.862Z,1.90
2022-10-11T12:18:53.792Z,1.57
2022-10-11T12:21:31.862Z,1.53
2022-10-11T12:24:02.644Z,1.70
2022-10-11T12:26:45.614Z,1.93
2022-10-11T12:29:47.713Z,2.00
2022-10-11T12:32:54.776Z,1.67
2022-10-11T12:36:02.702Z,1.60
2022-10-11T12:38:39.761Z,1.60
2022-10-11T12:41:51.201Z,1.30
2022-10-11T12:44:26.337Z,1.63
2022-10-11T12:47:32.924Z,1.67
2022-10-11T12:50:19.395Z,1.63
2022-10-11T12:52:59.295Z,1.30
2022-10-11T12:55:40.092Z,2.03
2022-10-11T12:58:31.111Z,1.80
2022-10-11T13:01:22.144Z,1.70
2022-10-11T13:04:06.452Z,1.60
2022-10-11T13:06:39.770Z,1.70
2022-10-11T13:09:22.299Z,1.73
2022-10-11T13:11:56.152Z,1.70
2022-10-11T13:14:28.005Z,1.60
2022-10-11T13:17:08.767Z,1.77
2022-10-11T13:22:21.612Z,1.80
2022-10-11T13:24:52.082Z,1.80
2022-10-11T13:27:24.670Z,1.87
2022-10-11T13:29:59.311Z,1.70
2022-10-11T13:32:32.207Z,1.40
2022-10-11T13:35:04.924Z,1.67
2022-10-11T13:37:43.792Z,1.83
2022-10-11T13:40:17.719Z,1.57
2022-10-11T13:42:48.561Z,1.40
2022-10-11T13:45:22.299Z,1.63
2022-10-11T13:47:52.961Z,1.83
2022-10-11T13:50:30.706Z,1.70
2022-10-11T13:53:03.589Z,1.60
2022-10-11T13:55:37.066Z,1.90
2022-10-11T13:58:18.533Z,1.90
2022-10-11T14:00:56.470Z,1.80
2022-10-11T14:03:38.770Z,1.70
2022-10-11T14:06:08.987Z,1.87
2022-10-11T14:08:41.045Z,1.90
2022-10-11T14:11:14.300Z,1.40
2022-10-11T14:13:46.328Z,1.60
2022-10-11T14:16:31.373Z,1.50
2022-10-11T14:19:11.793Z,2.17
2022-10-11T14:21:52.492Z,1.23
2022-10-11T14:24:22.739Z,1.90
2022-10-11T14:26:56.284Z,1.40
2022-10-11T14:29:29.318Z,1.40
2022-10-11T14:32:05.241Z,1.30
2022-10-11T14:34:35.863Z,1.70
2022-10-11T14:37:05.461Z,1.60
2022-10-11T14:39:34.938Z,1.50
2022-10-11T14:42:05.979Z,1.40
2022-10-11T14:44:34.971Z,1.43
2022-10-11T14:47:06.634Z,1.30
2022-10-11T14:49:38.740Z,1.40
2022-10-11T14:52:11.580Z,1.40
2022-10-11T14:54:40.986Z,1.40
2022-10-11T14:57:14.034Z,1.70
2022-10-11T14:59:43.143Z,1.60
2022-10-11T15:02:13.212Z,1.33
2022-10-11T15:04:42.381Z,1.40
2022-10-11T15:07:13.497Z,1.20
2022-10-11T15:09:42.944Z,1.17
2022-10-11T15:12:13.391Z,1.93
2022-10-11T15:14:42.726Z,1.20
2022-10-11T15:17:13.812Z,1.13
2022-10-11T15:19:42.966Z,1.30
2022-10-11T15:22:12.262Z,1.27
2022-10-11T15:24:41.969Z,1.17
2022-10-11T15:27:12.486Z,3.00
2022-10-11T15:29:41.603Z,1.33
2022-10-11T15:32:10.780Z,1.20
2022-10-11T15:34:39.881Z,1.40
2022-10-11T15:37:09.073Z,1.73
2022-10-11T15:39:38.218Z,1.33
2022-10-11T15:42:08.125Z,2.43
2022-10-11T15:44:38.575Z,1.63
2022-10-11T15:47:07.780Z,1.40
2022-10-11T15:49:36.885Z,1.60
2022-10-11T15:52:06.192Z,1.70
2022-10-11T15:54:35.294Z,1.40
2022-10-11T15:57:04.578Z,1.47
2022-10-11T15:59:33.593Z,1.63
2022-10-11T16:02:04.073Z,1.87
2022-10-11T16:04:33.129Z,1.67
2022-10-11T16:07:02.116Z,1.70
2022-10-11T16:09:31.146Z,1.63
2022-10-11T16:12:00.193Z,1.43
2022-10-11T16:14:31.559Z,1.60
2022-10-11T16:17:03.583Z,1.43
2022-10-11T16:19:33.945Z,1.57
2022-10-11T16:22:02.939Z,1.70
2022-10-11T16:24:32.021Z,1.70
2022-10-11T16:27:01.123Z,1.50
2022-10-11T16:29:30.267Z,1.57
2022-10-11T16:31:59.287Z,1.17
2022-10-11T16:34:28.271Z,1.30
2022-10-11T16:36:58.657Z,1.10
2022-10-11T16:39:28.097Z,1.37
2022-10-11T16:41:57.192Z,1.10
2022-10-11T16:44:27.783Z,1.00
2022-10-11T16:46:57.421Z,1.00
2022-10-11T16:49:29.220Z,1.53
2022-10-11T16:52:00.299Z,1.90
2022-10-11T16:54:30.323Z,2.70
2022-10-11T16:57:00.518Z,3.30
2022-10-11T16:59:29.588Z,2.40
2022-10-11T17:01:58.703Z,1.97
2022-10-11T17:04:27.963Z,1.83
2022-10-11T17:06:58.150Z,3.03
2022-10-11T17:09:28.875Z,4.00
2022-10-11T17:11:57.892Z,2.97
2022-10-11T17:14:26.880Z,2.03
2022-10-11T17:16:55.907Z,1.70
2022-10-11T17:19:24.864Z,1.33
2022-10-11T17:21:53.853Z,1.53
2022-10-11T17:24:22.895Z,1.37
2022-10-11T17:26:53.348Z,1.80
2022-10-11T17:29:24.089Z,1.40
2022-10-11T17:31:53.508Z,1.50
2022-10-11T17:34:22.775Z,1.50
2022-10-11T17:36:51.895Z,1.30
2022-10-11T17:39:23.389Z,1.30
2022-10-11T17:41:54.852Z,1.27
2022-10-11T17:44:23.988Z,1.70
2022-10-11T17:46:53.096Z,1.63
2022-10-11T17:49:22.077Z,2.20
2022-10-11T17:51:51.133Z,2.30
2022-10-11T17:54:20.130Z,2.40
2022-10-11T17:56:50.317Z,1.83
2022-10-11T17:59:22.384Z,2.10
2022-10-11T18:01:52.030Z,2.00
2022-10-11T18:04:22.164Z,2.10
2022-10-11T18:06:51.553Z,1.80
2022-10-11T18:09:21.724Z,2.37
2022-10-11T18:11:51.347Z,2.30
2022-10-11T18:14:21.881Z,2.00
2022-10-11T18:16:51.059Z,2.40
2022-10-11T18:19:20.074Z,2.67
2022-10-11T18:21:49.102Z,3.07
2022-10-11T18:24:18.575Z,3.27
2022-10-11T18:26:48.018Z,3.47
2022-10-11T18:29:17.286Z,3.07
2022-10-11T18:31:47.708Z,7.37
2022-10-11T18:34:16.738Z,6.43
2022-10-11T18:36:45.756Z,6.30
2022-10-11T18:39:16.108Z,5.90
2022-10-11T18:41:45.401Z,5.80
2022-10-11T18:44:16.705Z,5.17
2022-10-11T18:46:48.552Z,4.60
2022-10-11T18:49:18.299Z,3.83
2022-10-11T18:51:48.793Z,3.33
2022-10-11T18:54:21.136Z,3.30
2022-10-11T18:56:50.831Z,3.10
2022-10-11T18:59:20.325Z,3.20
2022-10-11T19:01:52.350Z,3.03
2022-10-11T19:04:21.897Z,4.13
2022-10-11T19:06:53.292Z,4.13
2022-10-11T19:09:26.263Z,4.73
2022-10-11T19:11:57.370Z,4.70
2022-10-11T19:14:30.227Z,5.00
2022-10-11T19:17:01.129Z,5.70
2022-10-11T19:19:32.826Z,5.20
2022-10-11T19:22:03.379Z,6.00
2022-10-11T19:24:33.745Z,5.23
2022-10-11T19:27:03.181Z,4.73
2022-10-11T19:29:33.100Z,4.70
2022-10-11T19:32:04.493Z,4.00
2022-10-11T19:34:33.570Z,4.30
2022-10-11T19:37:04.052Z,3.90
2022-10-11T19:39:33.384Z,3.93
2022-10-11T19:42:04.313Z,4.17
2022-10-11T19:44:37.157Z,4.17
2022-10-11T19:47:10.177Z,3.73
2022-10-11T19:49:39.246Z,3.63
2022-10-11T19:52:09.550Z,3.50
2022-10-11T19:54:38.499Z,4.13
2022-10-11T19:57:08.812Z,4.27
2022-10-11T19:59:37.855Z,4.47
2022-10-11T20:02:07.107Z,5.23
2022-10-11T20:04:55.760Z,4.30
2022-10-11T20:07:43.411Z,4.00
2022-10-11T20:10:30.671Z,4.13
2022-10-11T20:13:18.137Z,4.47
2022-10-11T20:16:08.080Z,4.00
2022-10-11T20:18:58.327Z,4.23
2022-10-11T20:21:47.163Z,3.50
2022-10-11T20:24:34.709Z,3.07
2022-10-11T20:27:23.005Z,3.43
2022-10-11T20:30:13.940Z,3.37
2022-10-11T20:33:01.197Z,3.87
2022-10-11T20:35:59.387Z,3.80
2022-10-11T20:38:51.111Z,3.80
2022-10-11T20:41:40.365Z,3.97
2022-10-11T20:44:27.927Z,4.07
2022-10-11T20:47:15.174Z,3.70
2022-10-11T20:50:02.725Z,3.70
2022-10-11T20:52:50.403Z,3.57
2022-10-11T20:55:39.078Z,2.90
2022-10-11T20:58:26.709Z,2.37
2022-10-11T21:01:17.487Z,2.50
2022-10-11T21:04:07.400Z,2.50
2022-10-11T21:06:54.848Z,2.60
2022-10-11T21:09:42.173Z,3.27
2022-10-11T21:12:31.173Z,3.17
2022-10-11T21:15:19.207Z,3.30
2022-10-11T21:18:06.734Z,2.50
2022-10-11T21:20:54.162Z,3.10
2022-10-11T21:23:42.269Z,2.80
2022-10-11T21:26:31.049Z,3.30
2022-10-11T21:29:20.182Z,2.83
2022-10-11T21:32:10.828Z,2.80
2022-10-11T21:35:00.963Z,2.83
2022-10-11T21:37:48.159Z,2.93
2022-10-11T21:40:40.301Z,3.40
2022-10-11T21:43:27.605Z,3.10
2022-10-11T21:46:19.912Z,3.20
2022-10-11T21:49:07.522Z,3.30
2022-10-11T21:51:55.237Z,2.77
2022-10-11T21:54:42.541Z,3.03
2022-10-11T21:57:29.755Z,3.03
2022-10-11T22:00:17.101Z,2.90
2022-10-11T22:03:05.774Z,2.80
2022-10-11T22:05:53.416Z,2.70
2022-10-11T22:08:41.533Z,2.47
2022-10-11T22:11:28.963Z,2.43
2022-10-11T22:14:17.477Z,2.60
2022-10-11T22:17:05.035Z,2.63
2022-10-11T22:19:53.766Z,3.27
2022-10-11T22:22:41.258Z,3.40
2022-10-11T22:25:28.546Z,3.27
2022-10-11T22:28:16.138Z,3.37
2022-10-11T22:31:03.860Z,3.23
2022-10-11T22:33:55.006Z,4.17
2022-10-11T22:36:43.633Z,3.80
2022-10-11T22:39:31.412Z,3.37
2022-10-11T22:42:19.013Z,3.40
2022-10-11T22:45:07.684Z,3.63
2022-10-11T22:47:55.255Z,3.47
2022-10-11T22:50:42.636Z,3.63
2022-10-11T22:53:31.652Z,3.33
2022-10-11T22:56:19.087Z,3.17
2022-10-11T22:59:06.279Z,3.37
2022-10-11T23:01:53.651Z,3.50
2022-10-11T23:04:41.077Z,3.43
2022-10-11T23:07:28.417Z,3.43
2022-10-11T23:10:17.628Z,3.13
2022-10-11T23:13:05.436Z,2.67
2022-10-11T23:15:53.171Z,2.33
2022-10-11T23:18:40.952Z,2.37
2022-10-11T23:21:28.279Z,2.73
2022-10-11T23:24:15.756Z,2.53
2022-10-11T23:27:04.955Z,2.50
2022-10-11T23:29:52.309Z,2.70
2022-10-11T23:32:39.502Z,2.20
2022-10-11T23:39:06.527Z,2.67
2022-10-11T23:41:54.237Z,3.00
2022-10-11T23:44:43.137Z,2.63
2022-10-11T23:47:30.907Z,2.40
2022-10-11T23:50:18.567Z,2.43
2022-10-11T23:53:06.266Z,2.77
2022-10-11T23:55:53.527Z,2.60
2022-10-11T23:58:41.310Z,2.50
